Time;durP1;ratioP1;P1;durP2;ratioP2;P2;SDS_P1;SDS_P2;PMS_P1;PMS_P2;Temp;Humidity;BMP_temperature;BMP_pressure;BME280_temperature;BME280_humidity;BME280_pressure;Samples;Min_cycle;Max_cycle;Signal;HPM_P1;HPM_P2
2024/03/05 00:00:21;;;;;;;20.25;11.57;;;;;;;6.22;100.00;92492.38;2031435;28;20486;-80
2024/03/05 00:01:22;;;;;;;18.40;11.88;;;;;;;6.25;100.00;92491.59;2001507;28;20102;-79
2024/03/05 00:02:23;;;;;;;21.75;11.90;;;;;;;6.07;100.00;92491.13;2014644;28;21830;-80
2024/03/05 00:03:25;;;;;;;20.88;11.82;;;;;;;6.07;100.00;92486.56;2033373;28;21429;-80
2024/03/05 00:04:26;;;;;;;20.52;12.05;;;;;;;5.99;100.00;92496.50;2039069;28;21733;-80
2024/03/05 00:05:28;;;;;;;21.88;11.82;;;;;;;6.09;100.00;92486.88;2040497;28;20682;-80
2024/03/05 00:06:35;;;;;;;20.17;11.10;;;;;;;6.12;100.00;92496.72;2030801;28;20029;-81
2024/03/05 00:07:36;;;;;;;20.65;12.15;;;;;;;6.08;100.00;92497.91;2048205;28;20029;-80
2024/03/05 00:08:37;;;;;;;24.05;12.00;;;;;;;6.13;100.00;92492.91;2045589;28;20037;-80
2024/03/05 00:09:38;;;;;;;22.05;11.60;;;;;;;6.09;100.00;92492.19;2045691;28;20227;-79
2024/03/05 00:10:39;;;;;;;19.90;12.35;;;;;;;6.10;100.00;92490.28;2058149;28;20052;-80
2024/03/05 00:11:40;;;;;;;24.70;13.45;;;;;;;6.02;100.00;92501.03;2047216;28;21049;-79
2024/03/05 00:12:41;;;;;;;21.73;12.75;;;;;;;6.04;100.00;92495.31;2057542;28;20391;-80
2024/03/05 00:13:43;;;;;;;21.83;12.50;;;;;;;6.01;100.00;92502.19;2071426;28;20059;-80
2024/03/05 00:14:45;;;;;;;22.98;12.45;;;;;;;6.11;100.00;92497.13;2081066;28;20135;-80
2024/03/05 00:15:46;;;;;;;21.00;12.98;;;;;;;6.08;100.00;92497.91;2082681;28;20029;-82
2024/03/05 00:16:47;;;;;;;21.73;12.88;;;;;;;5.97;100.00;92496.19;2090814;28;20342;-81
2024/03/05 00:17:48;;;;;;;21.83;12.75;;;;;;;6.07;100.00;92497.16;2091103;28;20021;-81
2024/03/05 00:18:49;;;;;;;25.35;12.48;;;;;;;6.02;100.00;92493.06;2083089;28;20109;-80
2024/03/05 00:19:50;;;;;;;23.85;13.52;;;;;;;5.99;100.00;92493.84;2099207;28;20079;-80
2024/03/05 00:20:51;;;;;;;26.23;13.77;;;;;;;5.86;100.00;92492.13;2091267;28;20025;-81
2024/03/05 00:21:52;;;;;;;23.38;13.18;;;;;;;5.88;100.00;92493.22;2082886;28;20051;-81
2024/03/05 00:22:54;;;;;;;25.60;13.88;;;;;;;6.01;100.00;92501.41;2082600;28;20403;-80
2024/03/05 00:23:55;;;;;;;24.13;12.65;;;;;;;6.03;100.00;92499.13;2090965;28;20024;-80
2024/03/05 00:24:58;;;;;;;22.38;12.55;;;;;;;6.06;100.00;92498.31;2099284;28;20033;-79
2024/03/05 00:25:59;;;;;;;25.63;13.15;;;;;;;6.11;100.00;92505.81;2090859;28;20021;-80
2024/03/05 00:27:00;;;;;;;24.67;12.68;;;;;;;6.09;100.00;92499.41;2097033;28;20482;-79
2024/03/05 00:28:01;;;;;;;25.42;13.45;;;;;;;6.16;100.00;92504.63;2108087;28;20024;-81
2024/03/05 00:29:03;;;;;;;26.23;13.90;;;;;;;6.04;100.00;92509.31;2106858;28;20028;-80
2024/03/05 00:30:08;;;;;;;21.70;11.98;;;;;;;5.98;100.00;92507.53;2099152;28;20029;-80
2024/03/05 00:31:09;;;;;;;24.10;12.68;;;;;;;5.95;100.00;92503.78;2101130;28;20572;-81
2024/03/05 00:32:10;;;;;;;22.42;12.18;;;;;;;6.03;100.00;92510.47;2090748;28;20075;-80
2024/03/05 00:33:11;;;;;;;24.92;12.85;;;;;;;5.88;100.00;92509.13;2082420;28;20024;-81
2024/03/05 00:34:12;;;;;;;22.70;12.57;;;;;;;5.98;100.00;92508.28;2090642;28;20016;-81
2024/03/05 00:35:15;;;;;;;24.48;13.13;;;;;;;6.00;100.00;92508.63;2099606;28;20028;-81
2024/03/05 00:36:16;;;;;;;23.85;12.73;;;;;;;6.00;100.00;92499.91;2108162;28;20034;-81
2024/03/05 00:37:17;;;;;;;23.15;13.27;;;;;;;6.07;100.00;92507.03;2107984;28;20125;-80
2024/03/05 00:38:18;;;;;;;24.15;12.40;;;;;;;6.03;100.00;92507.81;2099486;28;20048;-81
2024/03/05 00:39:19;;;;;;;20.92;12.05;;;;;;;6.11;100.00;92503.16;2107464;28;20070;-80
2024/03/05 00:40:20;;;;;;;24.98;12.65;;;;;;;5.99;100.00;92511.69;2115465;28;20467;-80
2024/03/05 00:41:22;;;;;;;22.05;12.13;;;;;;;6.13;100.00;92508.81;2107079;28;20134;-81
2024/03/05 00:42:24;;;;;;;25.95;12.13;;;;;;;6.05;100.00;92512.72;2095870;28;20124;-80
2024/03/05 00:43:25;;;;;;;24.77;12.48;;;;;;;6.05;100.00;92507.41;2098807;28;20035;-80
2024/03/05 00:44:26;;;;;;;25.00;13.13;;;;;;;6.02;100.00;92510.88;2098544;28;20472;-79
2024/03/05 00:45:27;;;;;;;24.13;13.80;;;;;;;6.05;100.00;92510.81;2106919;28;20028;-81
2024/03/05 00:46:28;;;;;;;23.67;13.18;;;;;;;5.96;100.00;92520.44;2105630;28;20077;-80
2024/03/05 00:47:35;;;;;;;25.45;12.93;;;;;;;5.95;100.00;92514.38;2093025;28;20048;-80
2024/03/05 00:48:37;;;;;;;23.30;12.90;;;;;;;6.05;100.00;92516.13;2055017;28;20459;-81
2024/03/05 00:49:38;;;;;;;24.10;13.80;;;;;;;6.04;100.00;92511.22;2007533;28;20164;-79
2024/03/05 00:50:39;;;;;;;26.48;12.63;;;;;;;6.00;100.00;92508.63;2018999;28;20329;-79
2024/03/05 00:51:40;;;;;;;26.48;13.10;;;;;;;6.04;100.00;92511.22;2022372;28;20800;-81
2024/03/05 00:52:42;;;;;;;26.27;13.07;;;;;;;6.05;100.00;92510.06;2043064;28;20070;-79
2024/03/05 00:53:43;;;;;;;25.42;13.88;;;;;;;6.00;100.00;92507.88;2044025;28;20710;-82
2024/03/05 00:54:45;;;;;;;24.38;12.27;;;;;;;6.01;100.00;92512.03;2044319;28;20126;-80
2024/03/05 00:55:46;;;;;;;23.17;12.90;;;;;;;6.04;100.00;92511.22;2051392;28;20040;-81
2024/03/05 00:56:47;;;;;;;24.90;13.45;;;;;;;5.96;100.00;92513.22;2076171;28;20290;-82
2024/03/05 00:57:48;;;;;;;22.75;12.20;;;;;;;5.99;100.00;92509.03;2074620;28;20476;-82
2024/03/05 00:58:50;;;;;;;20.65;12.43;;;;;;;6.00;100.00;92510.53;2077507;28;20036;-80
2024/03/05 00:59:53;;;;;;;23.60;11.73;;;;;;;5.98;100.00;92513.59;2092679;28;20512;-83
2024/03/05 01:00:54;;;;;;;26.52;12.70;;;;;;;5.89;100.00;92507.25;2093807;28;20123;-83
2024/03/05 01:01:55;;;;;;;25.92;12.38;;;;;;;5.96;100.00;92510.56;2089930;28;20036;-80
2024/03/05 01:02:56;;;;;;;23.30;12.00;;;;;;;5.97;100.00;92503.34;2081256;28;20088;-81
2024/03/05 01:03:58;;;;;;;25.73;13.63;;;;;;;5.90;100.00;92501.53;2089378;28;20152;-81
2024/03/05 01:04:59;;;;;;;21.63;11.80;;;;;;;5.85;100.00;92509.94;2089324;28;20021;-81
2024/03/05 01:06:03;;;;;;;25.00;13.10;;;;;;;5.86;100.00;92506.16;2083816;28;20029;-81
2024/03/05 01:07:05;;;;;;;23.45;11.98;;;;;;;5.89;100.00;92512.56;2097236;28;20101;-81
2024/03/05 01:08:06;;;;;;;22.95;12.20;;;;;;;5.90;100.00;92498.88;2089502;28;20090;-80
2024/03/05 01:09:11;;;;;;;22.98;12.52;;;;;;;5.82;100.00;92514.16;2089189;28;20047;-79
2024/03/05 01:10:12;;;;;;;21.73;11.38;;;;;;;5.84;100.00;92510.34;2105869;28;20049;-80
2024/03/05 01:11:13;;;;;;;24.77;12.05;;;;;;;5.89;100.00;92510.66;2097380;28;20027;-80
2024/03/05 01:12:14;;;;;;;21.67;11.75;;;;;;;5.92;100.00;92511.78;2089254;28;20029;-82
2024/03/05 01:13:18;;;;;;;22.75;12.10;;;;;;;5.77;100.00;92504.00;2097592;28;20060;-81
2024/03/05 01:14:22;;;;;;;21.33;11.27;;;;;;;5.73;100.00;92510.50;2100541;28;20024;-81
2024/03/05 01:15:24;;;;;;;22.40;11.32;;;;;;;5.80;100.00;92508.50;2105821;28;20034;-81
2024/03/05 01:16:26;;;;;;;24.45;12.70;;;;;;;5.75;100.00;92505.53;2105649;28;20042;-81
2024/03/05 01:17:27;;;;;;;25.15;12.63;;;;;;;5.80;100.00;92494.50;2097407;28;20035;-81
2024/03/05 01:18:28;;;;;;;22.27;12.40;;;;;;;5.81;100.00;92506.59;2097138;28;20036;-80
2024/03/05 01:19:29;;;;;;;24.00;12.40;;;;;;;5.87;100.00;92506.91;2106725;28;20495;-81
2024/03/05 01:20:30;;;;;;;23.38;12.15;;;;;;;5.89;100.00;92508.00;2097498;28;20021;-81
2024/03/05 01:21:31;;;;;;;20.65;12.07;;;;;;;5.90;100.00;92500.78;2089299;28;20029;-80
2024/03/05 01:22:32;;;;;;;25.80;13.25;;;;;;;5.79;100.00;92503.56;2088970;28;20032;-81
2024/03/05 01:23:33;;;;;;;25.70;12.05;;;;;;;5.74;100.00;92507.44;2089215;28;20120;-80
2024/03/05 01:24:44;;;;;;;24.88;12.32;;;;;;;5.75;100.00;92505.53;2096418;28;20027;-80
2024/03/05 01:25:45;;;;;;;25.00;12.52;;;;;;;5.86;100.00;92506.16;2098495;28;20024;-82
2024/03/05 01:26:46;;;;;;;24.67;12.57;;;;;;;5.65;100.00;92509.09;2097110;28;20082;-81
2024/03/05 01:27:47;;;;;;;25.08;12.45;;;;;;;5.80;100.00;92503.19;2105664;28;20112;-80
2024/03/05 01:28:48;;;;;;;22.90;12.00;;;;;;;5.90;100.00;92506.09;2104011;28;20024;-80
2024/03/05 01:29:50;;;;;;;21.60;11.80;;;;;;;5.88;100.00;92501.19;2088925;28;20128;-81
2024/03/05 01:30:51;;;;;;;21.65;11.32;;;;;;;5.85;100.00;92504.66;2088540;28;20066;-80
2024/03/05 01:31:56;;;;;;;23.67;12.23;;;;;;;5.95;100.00;92508.31;2093049;28;20033;-80
2024/03/05 01:32:57;;;;;;;22.42;11.85;;;;;;;5.92;100.00;92512.53;2098024;28;20099;-80
2024/03/05 01:33:58;;;;;;;24.17;11.95;;;;;;;5.95;100.00;92513.63;2097034;28;20140;-80
2024/03/05 01:34:59;;;;;;;23.00;12.23;;;;;;;5.98;100.00;92510.94;2096830;28;20081;-80
2024/03/05 01:36:00;;;;;;;24.10;12.75;;;;;;;5.93;100.00;92511.38;2091437;28;20028;-82
2024/03/05 01:37:01;;;;;;;21.77;11.85;;;;;;;5.83;100.00;92509.59;2060128;28;20059;-81
2024/03/05 01:38:03;;;;;;;19.85;10.73;;;;;;;5.80;100.00;92510.41;2037206;28;20530;-82
2024/03/05 01:39:04;;;;;;;21.83;11.77;;;;;;;5.90;100.00;92509.50;2043225;28;22469;-82
2024/03/05 01:40:06;;;;;;;24.67;11.95;;;;;;;5.92;100.00;92506.47;2049168;28;20536;-82
2024/03/05 01:41:06;;;;;;;20.33;11.60;;;;;;;5.86;100.00;92508.78;2038557;28;20390;-80
2024/03/05 01:42:08;;;;;;;24.02;11.07;;;;;;;5.83;100.00;92504.28;1956367;28;20029;-80
2024/03/05 01:43:10;;;;;;;21.30;11.05;;;;;;;5.90;100.00;92504.19;2026588;28;20118;-81
2024/03/05 01:44:15;;;;;;;22.90;11.10;;;;;;;5.93;100.00;92506.09;1965726;28;22230;-81
2024/03/05 01:45:18;;;;;;;22.77;11.98;;;;;;;5.92;100.00;92515.16;1909146;28;20636;-80
2024/03/05 01:46:19;;;;;;;20.67;10.88;;;;;;;5.91;100.00;92508.34;1948646;28;20085;-81
2024/03/05 01:47:21;;;;;;;21.15;11.15;;;;;;;5.86;100.00;92508.78;1853282;28;21619;-80
2024/03/05 01:48:22;;;;;;;24.90;12.57;;;;;;;5.96;100.00;92501.88;1871156;28;20712;-81
2024/03/05 01:49:24;;;;;;;22.95;11.75;;;;;;;5.85;100.00;92507.31;1879798;28;20069;-82
2024/03/05 01:50:27;;;;;;;22.65;11.18;;;;;;;5.79;100.00;92506.22;1782775;28;22609;-81
2024/03/05 01:51:30;;;;;;;21.55;10.73;;;;;;;5.89;100.00;92502.69;1847209;28;22862;-80
2024/03/05 01:52:32;;;;;;;20.88;11.30;;;;;;;5.92;100.00;92509.88;1820923;28;21162;-80
2024/03/05 01:53:33;;;;;;;24.33;12.10;;;;;;;5.87;100.00;92505.00;1822795;28;21554;-81
2024/03/05 01:54:35;;;;;;;17.77;10.63;;;;;;;5.99;100.00;92499.16;1873403;28;22903;-81
2024/03/05 01:55:38;;;;;;;21.17;11.60;;;;;;;5.90;100.00;92504.19;1831285;28;21462;-80
2024/03/05 01:56:44;;;;;;;17.95;10.50;;;;;;;5.85;100.00;92511.84;1860031;28;22058;-80
2024/03/05 01:57:49;;;;;;;18.20;10.15;;;;;;;5.91;100.00;92494.34;1893135;28;21497;-81
2024/03/05 01:58:54;;;;;;;20.00;11.05;;;;;;;5.89;100.00;92497.41;1794568;28;22198;-80
2024/03/05 01:59:55;;;;;;;18.88;10.10;;;;;;;5.79;100.00;92493.75;1794469;28;22506;-80
2024/03/05 02:00:57;;;;;;;16.73;10.32;;;;;;;5.87;100.00;92490.97;1908998;28;21548;-81
2024/03/05 02:01:58;;;;;;;18.70;10.60;;;;;;;5.90;100.00;92488.28;1921196;28;20112;-80
2024/03/05 02:02:59;;;;;;;19.45;10.23;;;;;;;6.02;100.00;92497.63;1860888;28;21021;-79
2024/03/05 02:04:00;;;;;;;18.33;10.27;;;;;;;6.06;100.00;92498.31;1881974;28;20870;-79
2024/03/05 02:05:02;;;;;;;18.13;10.38;;;;;;;6.08;100.00;92492.59;1933970;28;20119;-80
2024/03/05 02:06:07;;;;;;;18.88;9.88;;;;;;;6.03;100.00;92502.53;1937535;28;20123;-80
2024/03/05 02:07:09;;;;;;;17.55;9.80;;;;;;;6.00;100.00;92494.59;1942769;28;20722;-80
2024/03/05 02:08:11;;;;;;;17.55;10.40;;;;;;;6.05;100.00;92496.81;1933098;28;21451;-82
2024/03/05 02:09:13;;;;;;;19.65;10.65;;;;;;;5.98;100.00;92504.88;1967226;28;20385;-80
2024/03/05 02:10:15;;;;;;;21.05;10.63;;;;;;;5.84;100.00;92503.16;1970960;28;20032;-80
2024/03/05 02:11:16;;;;;;;18.45;9.98;;;;;;;5.89;100.00;92497.41;1995079;28;20032;-81
2024/03/05 02:12:17;;;;;;;20.20;9.90;;;;;;;5.93;100.00;92503.44;2009403;28;20066;-82
2024/03/05 02:13:18;;;;;;;16.08;9.35;;;;;;;5.87;100.00;92497.03;2061355;28;20492;-81
2024/03/05 02:14:21;;;;;;;20.13;10.13;;;;;;;5.80;100.00;92497.91;2057538;28;20050;-80
2024/03/05 02:15:22;;;;;;;19.42;10.27;;;;;;;5.84;100.00;92489.91;2079599;28;20500;-80
2024/03/05 02:16:23;;;;;;;18.38;10.30;;;;;;;5.76;100.00;92499.09;2051406;28;21299;-80
2024/03/05 02:17:26;;;;;;;17.15;10.00;;;;;;;5.74;100.00;92496.06;1995056;28;21631;-80
2024/03/05 02:18:27;;;;;;;16.92;9.45;;;;;;;5.76;100.00;92499.84;2013078;28;20524;-81
2024/03/05 02:19:28;;;;;;;18.77;9.65;;;;;;;5.65;100.00;92493.91;2025524;28;20032;-81
2024/03/05 02:20:29;;;;;;;16.50;9.20;;;;;;;5.76;100.00;92501.75;2021679;28;20055;-81
2024/03/05 02:21:33;;;;;;;15.88;9.18;;;;;;;5.64;100.00;92504.94;2036985;28;20059;-81
2024/03/05 02:22:34;;;;;;;15.93;8.93;;;;;;;5.67;100.00;92504.16;2046790;28;20117;-82
2024/03/05 02:23:35;;;;;;;16.95;9.27;;;;;;;5.62;100.00;92504.56;2052380;28;20089;-80
2024/03/05 02:24:36;;;;;;;14.85;8.73;;;;;;;5.53;100.00;92507.72;2061211;28;21754;-81
2024/03/05 02:27:01;;;;;;;;;;;;;;;4.84;100.00;92514.94;2114193;27;20114;-79
2024/03/05 02:28:04;;;;;;;13.98;7.93;;;;;;;4.89;100.00;92519.06;2124450;27;19919;-82
2024/03/05 02:29:05;;;;;;;16.27;7.95;;;;;;;4.89;100.00;92519.06;2113246;28;20653;-81
2024/03/05 02:30:10;;;;;;;13.95;7.63;;;;;;;5.12;100.00;92521.81;2112756;28;20496;-82
2024/03/05 02:31:11;;;;;;;14.52;8.00;;;;;;;5.09;100.00;92511.25;2129264;27;20033;-82
2024/03/05 02:32:12;;;;;;;12.55;7.82;;;;;;;5.12;100.00;92513.13;2117343;27;20105;-81
2024/03/05 02:33:15;;;;;;;13.40;7.70;;;;;;;5.08;100.00;92525.66;2112566;28;20028;-81
2024/03/05 02:34:16;;;;;;;13.10;7.63;;;;;;;5.01;100.00;92516.66;2121355;27;20384;-82
2024/03/05 02:35:18;;;;;;;15.80;8.23;;;;;;;4.89;100.00;92511.84;2112647;28;20035;-82
2024/03/05 02:36:20;;;;;;;16.13;8.45;;;;;;;4.83;100.00;92521.38;2112735;27;20042;-81
2024/03/05 02:37:24;;;;;;;13.25;7.55;;;;;;;4.84;100.00;92516.84;2119675;28;20030;-81
2024/03/05 02:38:26;;;;;;;13.57;7.72;;;;;;;4.94;100.00;92519.38;2112691;28;20491;-81
2024/03/05 02:39:30;;;;;;;14.32;7.78;;;;;;;4.96;100.00;92516.31;2095956;28;20136;-81
2024/03/05 02:40:31;;;;;;;12.80;7.05;;;;;;;4.87;100.00;92513.38;2112906;27;20030;-81
2024/03/05 02:41:32;;;;;;;11.98;7.00;;;;;;;4.96;100.00;92513.66;2121120;28;20464;-80
2024/03/05 02:42:33;;;;;;;14.55;7.25;;;;;;;4.99;100.00;92516.28;2112709;28;20024;-81
2024/03/05 02:43:34;;;;;;;14.52;7.97;;;;;;;5.05;100.00;92517.38;2121221;27;20023;-81
2024/03/05 02:44:35;;;;;;;14.60;8.45;;;;;;;5.11;100.00;92515.03;2125759;27;20585;-80
2024/03/05 02:45:36;;;;;;;15.77;8.15;;;;;;;5.08;100.00;92521.09;2104193;28;20047;-80
2024/03/05 02:46:37;;;;;;;16.67;8.85;;;;;;;5.03;100.00;92519.63;2103319;28;20078;-81
2024/03/05 02:47:41;;;;;;;14.13;7.47;;;;;;;5.08;100.00;92521.09;2102165;27;20103;-81
2024/03/05 02:48:43;;;;;;;15.43;8.20;;;;;;;5.04;100.00;92521.13;2118311;27;20024;-81
2024/03/05 02:49:44;;;;;;;14.82;7.93;;;;;;;4.94;100.00;92516.72;2109931;27;20388;-82
2024/03/05 02:50:47;;;;;;;16.08;8.23;;;;;;;5.08;100.00;92523.75;2113807;28;20024;-80
2024/03/05 02:51:48;;;;;;;15.40;8.77;;;;;;;5.11;100.00;92517.69;2118306;27;20111;-81
2024/03/05 02:52:49;;;;;;;14.13;7.63;;;;;;;5.15;100.00;92521.03;2122183;27;20035;-81
2024/03/05 02:53:50;;;;;;;13.15;7.57;;;;;;;5.20;100.00;92511.91;2125737;27;20482;-80
2024/03/05 02:54:51;;;;;;;13.60;8.13;;;;;;;5.19;100.00;92510.41;2117040;27;20024;-81
2024/03/05 02:55:52;;;;;;;14.68;8.63;;;;;;;5.17;100.00;92512.69;2104562;28;20527;-81
2024/03/05 02:56:53;;;;;;;14.45;8.35;;;;;;;5.12;100.00;92521.06;2090712;28;20052;-81
2024/03/05 02:57:54;;;;;;;17.48;9.20;;;;;;;5.14;100.00;92516.16;2104606;28;20028;-81
2024/03/05 02:58:56;;;;;;;17.15;8.55;;;;;;;5.13;100.00;92522.56;2105787;28;20516;-81
2024/03/05 02:59:57;;;;;;;18.27;8.85;;;;;;;5.04;100.00;92521.13;2112391;28;20036;-81
2024/03/05 03:00:58;;;;;;;15.32;8.80;;;;;;;5.19;100.00;92523.66;2104011;28;20062;-81
2024/03/05 03:02:00;;;;;;;17.90;9.60;;;;;;;5.13;100.00;92530.50;2115381;27;20027;-80
2024/03/05 03:03:01;;;;;;;16.80;8.80;;;;;;;5.07;100.00;92527.56;2126415;27;20027;-81
2024/03/05 03:04:02;;;;;;;15.90;8.52;;;;;;;5.06;100.00;92531.34;2112437;28;20020;-81
2024/03/05 03:05:03;;;;;;;16.80;9.05;;;;;;;5.08;100.00;92529.06;2112514;28;20019;-80
2024/03/05 03:06:15;;;;;;;16.35;9.10;;;;;;;5.07;100.00;92532.09;2112153;28;20354;-81
2024/03/05 03:07:16;;;;;;;15.77;8.63;;;;;;;5.09;100.00;92533.19;2113800;28;20027;-80
2024/03/05 03:08:17;;;;;;;16.23;8.77;;;;;;;5.07;100.00;92532.84;2121986;27;20039;-82
2024/03/05 03:09:18;;;;;;;16.05;8.63;;;;;;;5.13;100.00;92538.47;2118050;28;20034;-82
2024/03/05 03:10:20;;;;;;;16.48;8.45;;;;;;;5.13;100.00;92539.22;2115309;28;20028;-81
2024/03/05 03:11:21;;;;;;;18.13;8.70;;;;;;;5.10;100.00;92534.72;2120926;27;20029;-80
2024/03/05 03:12:22;;;;;;;16.30;7.97;;;;;;;5.09;100.00;92532.44;2114134;28;20527;-80
2024/03/05 03:13:23;;;;;;;16.27;7.75;;;;;;;5.12;100.00;92527.13;2101910;28;20023;-80
2024/03/05 03:14:24;;;;;;;14.75;8.80;;;;;;;5.13;100.00;92533.16;2095735;28;20024;-81
2024/03/05 03:15:26;;;;;;;15.25;7.55;;;;;;;5.15;100.00;92530.88;2112509;28;20031;-80
2024/03/05 03:16:27;;;;;;;13.40;7.85;;;;;;;5.21;100.00;92535.34;2124255;27;20517;-81
2024/03/05 03:17:37;;;;;;;16.40;9.38;;;;;;;5.07;100.00;92530.22;2107536;28;20028;-80
2024/03/05 03:18:38;;;;;;;14.50;7.72;;;;;;;5.20;100.00;92533.09;2105352;28;20467;-81
2024/03/05 03:19:39;;;;;;;15.45;7.93;;;;;;;5.24;100.00;92525.88;2113061;28;20043;-81
2024/03/05 03:20:40;;;;;;;14.50;8.13;;;;;;;5.30;100.00;92532.22;2104731;28;20499;-81
2024/03/05 03:21:41;;;;;;;12.48;7.38;;;;;;;5.38;100.00;92527.59;2095447;28;20029;-80
2024/03/05 03:22:45;;;;;;;16.08;8.25;;;;;;;5.37;100.00;92531.41;2105421;28;20028;-81
2024/03/05 03:23:46;;;;;;;13.88;8.65;;;;;;;5.49;100.00;92523.69;2113497;28;20024;-81
2024/03/05 03:24:48;;;;;;;12.95;7.55;;;;;;;5.36;100.00;92521.94;2123190;27;20442;-80
2024/03/05 03:25:49;;;;;;;14.55;8.30;;;;;;;5.31;100.00;92528.41;2117516;27;20305;-81
2024/03/05 03:26:51;;;;;;;14.23;7.80;;;;;;;5.36;100.00;92535.94;2105864;28;20040;-80
2024/03/05 03:27:52;;;;;;;16.65;8.80;;;;;;;5.31;100.00;92520.47;2105788;28;20032;-81
2024/03/05 03:28:54;;;;;;;15.73;8.48;;;;;;;5.29;100.00;92526.16;2119585;27;20024;-80
2024/03/05 03:29:55;;;;;;;17.25;8.80;;;;;;;5.24;100.00;92523.97;2124609;27;20019;-81
2024/03/05 03:30:56;;;;;;;17.65;9.25;;;;;;;5.34;100.00;92524.97;2124793;27;20027;-82
2024/03/05 03:31:57;;;;;;;14.55;8.27;;;;;;;5.35;100.00;92529.13;2121869;27;20088;-81
2024/03/05 03:32:58;;;;;;;16.08;8.07;;;;;;;5.36;100.00;92524.59;2120565;27;20492;-80
2024/03/05 03:33:59;;;;;;;15.68;8.70;;;;;;;5.36;100.00;92527.25;2118818;28;20020;-81
2024/03/05 03:35:03;;;;;;;17.35;8.38;;;;;;;5.29;100.00;92523.53;2120727;27;20050;-81
2024/03/05 03:36:05;;;;;;;14.52;8.10;;;;;;;5.22;100.00;92530.78;2125243;27;20137;-81
2024/03/05 03:37:07;;;;;;;16.50;8.48;;;;;;;5.15;100.00;92531.63;2124902;27;20447;-81
2024/03/05 03:38:10;;;;;;;15.35;8.23;;;;;;;5.10;100.00;92534.72;2124904;27;20026;-81
2024/03/05 03:39:11;;;;;;;16.27;8.77;;;;;;;5.15;100.00;92536.19;2098146;28;20029;-82
2024/03/05 03:40:21;;;;;;;13.60;7.65;;;;;;;5.22;100.00;92531.56;2094459;28;20080;-81
2024/03/05 03:41:22;;;;;;;13.48;8.35;;;;;;;5.18;100.00;92533.50;2122427;27;20027;-80
2024/03/05 03:42:23;;;;;;;18.23;8.93;;;;;;;5.16;100.00;92535.03;2114885;28;20032;-82
2024/03/05 03:43:25;;;;;;;17.05;8.98;;;;;;;5.10;100.00;92534.72;2115057;28;20019;-82
2024/03/05 03:44:27;;;;;;;14.52;8.55;;;;;;;5.15;100.00;92536.19;2108228;28;20480;-82
2024/03/05 03:45:27;;;;;;;14.77;8.68;;;;;;;5.27;100.00;92530.38;2110672;28;20480;-80
2024/03/05 03:46:28;;;;;;;15.65;8.57;;;;;;;5.20;100.00;92538.41;2101482;28;20109;-81
2024/03/05 03:47:29;;;;;;;14.50;8.30;;;;;;;5.20;100.00;92538.41;2098022;28;20040;-81
2024/03/05 03:48:30;;;;;;;17.85;8.98;;;;;;;5.21;100.00;92534.59;2097898;28;20031;-80
2024/03/05 03:49:32;;;;;;;14.75;7.32;;;;;;;5.24;100.00;92533.81;2097869;28;20036;-82
2024/03/05 03:50:33;;;;;;;15.57;7.70;;;;;;;5.18;100.00;92541.44;2101635;28;20027;-82
2024/03/05 03:51:34;;;;;;;15.25;8.10;;;;;;;5.12;100.00;92540.38;2102129;28;20025;-82
2024/03/05 03:52:41;;;;;;;14.68;7.85;;;;;;;5.24;100.00;92539.13;2098859;28;20447;-82
2024/03/05 03:53:43;;;;;;;14.75;7.47;;;;;;;5.33;100.00;92539.38;2111743;28;20403;-81
2024/03/05 03:54:44;;;;;;;13.77;7.60;;;;;;;5.29;100.00;92554.56;2123034;27;20098;-81
2024/03/05 03:55:45;;;;;;;18.77;7.85;;;;;;;5.21;100.00;92550.50;2110652;27;20039;-80
2024/03/05 03:56:46;;;;;;;13.85;7.38;;;;;;;5.09;100.00;92548.34;2112999;27;20114;-81
2024/03/05 03:57:47;;;;;;;15.27;8.25;;;;;;;5.13;100.00;92547.16;2121901;27;20487;-81
2024/03/05 03:58:48;;;;;;;13.63;7.45;;;;;;;5.23;100.00;92548.97;2104591;28;20381;-81
2024/03/05 03:59:49;;;;;;;12.57;6.82;;;;;;;5.14;100.00;92553.97;2109726;28;20039;-80
2024/03/05 04:00:50;;;;;;;11.52;6.45;;;;;;;5.12;100.00;92552.84;2109867;28;20024;-81
2024/03/05 04:01:51;;;;;;;12.80;6.72;;;;;;;5.10;100.00;92552.50;2099981;28;20029;-81
2024/03/05 04:02:52;;;;;;;14.80;8.13;;;;;;;5.03;100.00;92559.38;2118175;27;20019;-81
2024/03/05 04:03:53;;;;;;;32.05;28.42;;;;;;;4.95;100.00;92555.28;2118242;27;20031;-81
2024/03/05 04:04:53;;;;;;;16.17;11.68;;;;;;;4.95;100.00;92559.84;2101943;28;20032;-82
2024/03/05 04:05:55;;;;;;;16.50;8.45;;;;;;;4.99;100.00;92558.66;2097955;28;20397;-82
2024/03/05 04:06:56;;;;;;;13.13;8.85;;;;;;;4.98;100.00;92557.16;2098024;28;20020;-80
2024/03/05 04:07:57;;;;;;;15.90;9.07;;;;;;;4.96;100.00;92561.34;2106281;28;20036;-82
2024/03/05 04:08:58;;;;;;;12.65;8.20;;;;;;;5.00;100.00;92565.47;2098031;28;20121;-82
2024/03/05 04:10:02;;;;;;;14.70;8.32;;;;;;;5.05;100.00;92566.94;2106308;28;20339;-80
2024/03/05 04:11:03;;;;;;;14.15;7.38;;;;;;;5.07;100.00;92562.00;2115118;27;20106;-80
2024/03/05 04:12:04;;;;;;;12.60;7.05;;;;;;;5.10;100.00;92563.13;2101416;28;20487;-81
2024/03/05 04:13:05;;;;;;;13.25;7.82;;;;;;;5.09;100.00;92564.22;2114750;27;20020;-81
2024/03/05 04:14:06;;;;;;;13.52;7.28;;;;;;;5.17;100.00;92563.03;2122986;27;20030;-81
2024/03/05 04:15:08;;;;;;;12.75;8.05;;;;;;;5.10;100.00;92563.13;2114760;28;20046;-82
2024/03/05 04:16:09;;;;;;;14.02;7.75;;;;;;;5.14;100.00;92569.13;2089993;28;20139;-80
2024/03/05 04:17:14;;;;;;;13.23;7.63;;;;;;;5.12;100.00;92563.47;2089180;28;20024;-81
2024/03/05 04:18:16;;;;;;;12.35;7.55;;;;;;;5.11;100.00;92568.00;2093448;28;20689;-80
2024/03/05 04:19:17;;;;;;;13.15;7.22;;;;;;;5.11;100.00;92561.97;2097988;28;20024;-81
2024/03/05 04:20:20;;;;;;;11.57;6.65;;;;;;;5.12;100.00;92569.50;2097816;28;20044;-80
2024/03/05 04:21:21;;;;;;;12.60;7.50;;;;;;;5.11;100.00;92564.59;2099498;27;20033;-81
2024/03/05 04:22:22;;;;;;;10.43;6.65;;;;;;;5.17;100.00;92560.38;2115081;27;20504;-80
2024/03/05 04:23:24;;;;;;;11.48;7.13;;;;;;;5.09;100.00;92558.94;2128031;27;20063;-82
2024/03/05 04:24:25;;;;;;;14.38;7.13;;;;;;;5.11;100.00;92570.66;2113769;28;20031;-82
2024/03/05 04:25:30;;;;;;;11.60;7.18;;;;;;;5.20;100.00;92564.88;2105161;28;20098;-80
2024/03/05 04:26:31;;;;;;;13.73;7.30;;;;;;;5.29;100.00;92562.53;2113437;27;20042;-80
2024/03/05 04:27:33;;;;;;;14.43;7.07;;;;;;;5.29;100.00;92565.91;2123456;27;20039;-82
2024/03/05 04:28:48;;;;;;;12.07;6.82;;;;;;;5.22;100.00;92568.66;2127181;27;20063;-84
2024/03/05 04:29:57;;;;;;;12.05;6.93;;;;;;;5.19;100.00;92563.41;2114588;28;20030;-82
2024/03/05 04:30:58;;;;;;;12.18;6.90;;;;;;;5.15;100.00;92560.78;2118543;27;20432;-82
2024/03/05 04:32:05;;;;;;;11.30;6.47;;;;;;;5.14;100.00;92563.84;2111776;28;20583;-82
2024/03/05 04:33:09;;;;;;;10.90;6.53;;;;;;;5.11;100.00;92561.97;2103250;27;20023;-83
2024/03/05 04:34:13;;;;;;;12.18;6.88;;;;;;;5.15;100.00;92560.03;2123224;27;20076;-81
2024/03/05 04:35:16;;;;;;;12.88;7.22;;;;;;;5.11;100.00;92556.66;2106634;28;20031;-80
2024/03/05 04:36:16;;;;;;;11.18;6.53;;;;;;;5.18;100.00;92561.88;2106656;27;20039;-81
2024/03/05 04:37:18;;;;;;;12.75;7.03;;;;;;;5.12;100.00;92564.22;2114506;28;20418;-81
2024/03/05 04:38:18;;;;;;;12.93;7.30;;;;;;;5.12;100.00;92564.22;2114498;28;20448;-82
2024/03/05 04:39:20;;;;;;;13.23;7.82;;;;;;;5.09;100.00;92566.88;2123086;27;20026;-80
2024/03/05 04:40:22;;;;;;;15.30;7.07;;;;;;;5.04;100.00;92568.81;2105383;28;20126;-81
2024/03/05 04:41:23;;;;;;;13.73;8.00;;;;;;;5.02;100.00;92568.47;2110264;27;20023;-83
2024/03/05 04:42:25;;;;;;;12.68;7.75;;;;;;;5.11;100.00;92562.72;2110177;28;20471;-82
2024/03/05 04:43:26;;;;;;;10.10;6.45;;;;;;;5.11;100.00;92568.00;2098052;28;20101;-81
2024/03/05 04:44:28;;;;;;;13.73;8.13;;;;;;;5.11;100.00;92570.66;2114394;28;20104;-80
2024/03/05 04:45:30;;;;;;;11.93;8.05;;;;;;;4.94;100.00;92564.38;2106258;28;20024;-80
2024/03/05 04:46:30;;;;;;;13.18;7.72;;;;;;;4.92;100.00;92571.22;2104712;28;20035;-82
2024/03/05 04:47:31;;;;;;;15.02;7.55;;;;;;;4.90;100.00;92576.16;2097496;28;20032;-81